createdAt,value
2019-01-14T00:01:23.347Z,86.08
2019-01-14T00:03:53.818Z,86.14
2019-01-14T00:06:24.425Z,86.05
2019-01-14T00:08:55.062Z,86.16
2019-01-14T00:11:25.627Z,86.40
2019-01-14T00:13:56.018Z,87.10
2019-01-14T00:16:26.618Z,87.30
2019-01-14T00:18:57.177Z,87.39
2019-01-14T00:21:27.574Z,87.75
2019-01-14T00:23:58.035Z,88.03
2019-01-14T00:26:28.589Z,88.40
2019-01-14T00:28:58.973Z,88.38
2019-01-14T00:31:29.485Z,88.35
2019-01-14T00:34:00.321Z,88.61
2019-01-14T00:36:30.847Z,88.88
2019-01-14T00:39:01.272Z,88.91
2019-01-14T00:41:31.817Z,89.17
2019-01-14T00:44:02.275Z,89.46
2019-01-14T00:46:32.763Z,89.74
2019-01-14T00:49:03.222Z,90.19
2019-01-14T00:51:33.842Z,90.32
2019-01-14T00:54:04.567Z,90.51
2019-01-14T00:56:35.097Z,90.72
2019-01-14T00:59:06.138Z,90.78
2019-01-14T01:01:36.606Z,90.74
2019-01-14T01:04:07.267Z,90.79
2019-01-14T01:06:37.783Z,90.68
2019-01-14T01:09:09.415Z,90.62
2019-01-14T01:11:39.892Z,90.77
2019-01-14T01:14:10.405Z,90.92
2019-01-14T01:16:41.059Z,90.89
2019-01-14T01:19:11.672Z,90.65
2019-01-14T01:21:42.077Z,90.32
2019-01-14T01:24:12.515Z,89.91
2019-01-14T01:26:43.113Z,89.76
2019-01-14T01:29:13.595Z,89.98
2019-01-14T01:31:44.014Z,90.15
2019-01-14T01:34:14.506Z,89.88
2019-01-14T01:36:44.974Z,89.98
2019-01-14T01:39:15.452Z,89.94
2019-01-14T01:41:46.080Z,89.83
2019-01-14T01:44:16.461Z,89.78
2019-01-14T01:46:46.981Z,89.50
2019-01-14T01:49:17.488Z,89.44
2019-01-14T01:51:47.967Z,89.29
2019-01-14T01:54:18.468Z,89.06
2019-01-14T01:56:48.982Z,89.08
2019-01-14T01:59:19.421Z,89.04
2019-01-14T02:01:49.805Z,88.64
2019-01-14T02:04:20.267Z,88.70
2019-01-14T02:06:50.919Z,88.43
2019-01-14T02:09:21.307Z,88.11
2019-01-14T02:11:52.071Z,88.14
2019-01-14T02:14:22.751Z,87.23
2019-01-14T02:16:53.578Z,87.10
2019-01-14T02:19:24.028Z,86.98
2019-01-14T02:21:54.925Z,87.24
2019-01-14T02:24:25.327Z,87.68
2019-01-14T02:26:55.739Z,86.94
2019-01-14T02:29:26.236Z,86.34
2019-01-14T02:31:56.798Z,86.92
2019-01-14T02:34:27.217Z,86.23
2019-01-14T02:36:57.754Z,86.86
2019-01-14T02:39:28.137Z,86.76
2019-01-14T02:41:58.547Z,86.17
2019-01-14T02:44:29.084Z,85.73
2019-01-14T02:46:59.542Z,85.17
2019-01-14T02:49:29.977Z,85.68
2019-01-14T02:52:00.501Z,85.87
2019-01-14T02:54:30.818Z,85.38
2019-01-14T02:57:01.186Z,85.53
2019-01-14T02:59:31.655Z,84.94
2019-01-14T03:02:02.079Z,85.45
2019-01-14T03:04:32.488Z,85.05
2019-01-14T03:07:03.013Z,84.26
2019-01-14T03:09:33.571Z,84.73
2019-01-14T03:12:04.367Z,84.97
2019-01-14T03:14:34.777Z,83.95
2019-01-14T03:17:05.278Z,84.55
2019-01-14T03:19:37.543Z,84.94
2019-01-14T03:22:08.069Z,84.88
2019-01-14T03:24:38.565Z,84.71
2019-01-14T03:27:08.997Z,86.03
2019-01-14T03:29:39.503Z,84.22
2019-01-14T03:32:10.523Z,83.85
2019-01-14T03:34:40.983Z,83.90
2019-01-14T03:37:11.577Z,83.56
2019-01-14T03:39:42.138Z,83.44
2019-01-14T03:42:12.689Z,82.71
2019-01-14T03:44:43.088Z,82.00
2019-01-14T03:47:13.716Z,82.15
2019-01-14T03:49:44.153Z,82.37
2019-01-14T03:52:15.073Z,82.17
2019-01-14T03:54:45.662Z,82.36
2019-01-14T03:57:16.161Z,82.52
2019-01-14T03:59:46.485Z,83.07
2019-01-14T04:02:16.947Z,83.10
2019-01-14T04:04:47.628Z,83.12
2019-01-14T04:07:18.103Z,83.63
2019-01-14T04:09:48.437Z,84.21
2019-01-14T04:12:18.911Z,84.67
2019-01-14T04:14:49.617Z,85.04
2019-01-14T04:17:20.166Z,85.11
2019-01-14T04:19:50.546Z,85.09
2019-01-14T04:22:20.952Z,84.81
2019-01-14T04:24:51.317Z,84.46
2019-01-14T04:27:21.838Z,85.04
2019-01-14T04:29:52.412Z,84.62
2019-01-14T04:32:23.023Z,83.96
2019-01-14T04:34:53.613Z,83.12
2019-01-14T04:37:24.097Z,82.67
2019-01-14T04:39:54.559Z,82.13
2019-01-14T04:42:25.113Z,82.04
2019-01-14T04:44:55.603Z,82.48
2019-01-14T04:47:26.108Z,82.69
2019-01-14T04:49:56.467Z,82.70
2019-01-14T04:52:26.976Z,83.47
2019-01-14T04:54:57.372Z,84.21
2019-01-14T04:57:27.752Z,84.91
2019-01-14T04:59:58.817Z,85.51
2019-01-14T05:02:29.695Z,85.60
2019-01-14T05:05:00.234Z,85.54
2019-01-14T05:07:30.775Z,84.82
2019-01-14T05:10:01.190Z,85.41
2019-01-14T05:12:31.706Z,85.22
2019-01-14T05:15:02.105Z,85.38
2019-01-14T05:17:32.519Z,85.01
2019-01-14T05:20:03.190Z,84.89
2019-01-14T05:22:33.728Z,85.15
2019-01-14T05:25:04.673Z,84.26
2019-01-14T05:27:35.202Z,83.76
2019-01-14T05:30:07.238Z,84.13
2019-01-14T05:32:37.907Z,83.63
2019-01-14T05:35:08.941Z,83.54
2019-01-14T05:37:39.449Z,82.56
2019-01-14T05:40:18.273Z,81.89
2019-01-14T05:42:48.819Z,82.52
2019-01-14T05:45:19.377Z,80.08
2019-01-14T05:47:50.603Z,80.19
2019-01-14T05:50:21.162Z,79.12
2019-01-14T05:52:51.611Z,77.70
2019-01-14T05:55:22.122Z,76.82
2019-01-14T05:57:52.709Z,75.81
2019-01-14T06:00:39.721Z,76.33
2019-01-14T06:03:10.207Z,75.97
2019-01-14T06:05:40.655Z,74.36
2019-01-14T06:08:11.102Z,75.10
2019-01-14T06:10:41.629Z,74.21
2019-01-14T06:13:12.163Z,74.60
2019-01-14T06:15:42.825Z,75.57
2019-01-14T06:18:13.767Z,75.22
2019-01-14T06:20:44.357Z,76.23
2019-01-14T06:23:14.828Z,81.90
2019-01-14T06:25:45.726Z,85.25
2019-01-14T06:28:16.213Z,86.56
2019-01-14T06:30:46.706Z,87.18
2019-01-14T06:33:17.267Z,87.31
2019-01-14T06:35:47.677Z,87.12
2019-01-14T06:38:18.697Z,87.00
2019-01-14T06:40:49.467Z,86.29
2019-01-14T06:43:20.177Z,84.98
2019-01-14T06:45:50.897Z,82.83
2019-01-14T06:48:21.527Z,82.27
2019-01-14T06:50:52.349Z,81.81
2019-01-14T06:53:22.864Z,80.84
2019-01-14T06:55:55.991Z,79.47
2019-01-14T06:58:26.655Z,79.45
2019-01-14T07:00:57.402Z,78.45
2019-01-14T07:03:28.241Z,78.50
2019-01-14T07:05:59.231Z,77.69
2019-01-14T07:08:29.787Z,77.87
2019-01-14T07:11:00.670Z,77.39
2019-01-14T07:13:31.207Z,76.43
2019-01-14T07:16:01.632Z,77.19
2019-01-14T07:18:32.152Z,76.34
2019-01-14T07:21:03.083Z,76.04
2019-01-14T07:23:33.395Z,76.79
2019-01-14T07:26:04.183Z,76.73
2019-01-14T07:28:34.641Z,74.67
2019-01-14T07:31:05.227Z,72.61
2019-01-14T07:33:35.805Z,72.86
2019-01-14T07:36:06.543Z,76.17
2019-01-14T07:38:37.018Z,79.15
2019-01-14T07:41:07.614Z,80.61
2019-01-14T07:43:38.162Z,83.31
2019-01-14T07:46:08.805Z,85.25
2019-01-14T07:48:39.316Z,87.04
2019-01-14T07:51:10.076Z,87.21
2019-01-14T07:53:40.712Z,87.51
2019-01-14T07:56:11.941Z,88.01
2019-01-14T07:58:43.097Z,89.32
2019-01-14T08:01:13.664Z,90.48
2019-01-14T08:03:44.245Z,89.77
2019-01-14T08:06:14.873Z,88.43
2019-01-14T08:08:45.531Z,88.40
2019-01-14T08:11:15.952Z,88.47
2019-01-14T08:13:46.489Z,87.74
2019-01-14T08:16:17.105Z,87.19
2019-01-14T08:18:47.655Z,87.25
2019-01-14T08:21:18.648Z,87.04
2019-01-14T08:23:49.411Z,86.09
2019-01-14T08:26:19.856Z,84.36
2019-01-14T08:28:50.532Z,83.09
2019-01-14T08:31:21.159Z,79.85
2019-01-14T08:33:51.573Z,78.82
2019-01-14T08:36:22.263Z,78.23
2019-01-14T08:38:52.791Z,75.90
2019-01-14T08:41:26.162Z,70.99
2019-01-14T08:44:00.922Z,69.08
2019-01-14T08:46:32.027Z,66.81
2019-01-14T08:49:02.492Z,63.17
2019-01-14T08:51:32.932Z,62.60
2019-01-14T08:54:03.281Z,60.12
2019-01-14T08:56:33.738Z,60.27
2019-01-14T08:59:04.394Z,59.49
2019-01-14T09:01:34.829Z,57.75
2019-01-14T09:04:05.807Z,55.24
2019-01-14T09:06:36.412Z,56.13
2019-01-14T09:09:10.159Z,55.72
2019-01-14T09:11:40.673Z,52.81
2019-01-14T09:14:11.164Z,52.64
2019-01-14T09:16:41.751Z,53.12
2019-01-14T09:19:12.273Z,52.14
2019-01-14T09:21:42.692Z,49.79
2019-01-14T09:24:13.111Z,50.99
2019-01-14T09:26:45.025Z,52.10
2019-01-14T09:29:15.718Z,52.41
2019-01-14T09:31:46.696Z,51.53
2019-01-14T09:34:17.170Z,50.77
2019-01-14T09:36:47.628Z,50.91
2019-01-14T09:39:18.163Z,54.14
2019-01-14T09:41:48.653Z,58.45
2019-01-14T09:44:19.122Z,57.46
2019-01-14T09:46:49.604Z,57.88
2019-01-14T09:49:20.136Z,55.74
2019-01-14T09:51:50.634Z,57.15
2019-01-14T09:54:21.220Z,56.58
2019-01-14T09:56:51.682Z,59.04
2019-01-14T09:59:22.096Z,60.05
2019-01-14T10:01:52.521Z,61.37
2019-01-14T10:04:22.991Z,63.67
2019-01-14T10:06:53.412Z,65.33
2019-01-14T10:09:23.995Z,66.04
2019-01-14T10:11:54.442Z,67.03
2019-01-14T10:14:24.826Z,67.59
2019-01-14T10:16:56.476Z,67.57
2019-01-14T10:19:26.902Z,67.91
2019-01-14T10:21:57.446Z,66.73
2019-01-14T10:24:27.846Z,67.86
2019-01-14T10:26:58.354Z,65.71
2019-01-14T10:29:29.023Z,63.89
2019-01-14T10:31:59.503Z,64.57
2019-01-14T10:34:29.945Z,61.76
2019-01-14T10:37:00.549Z,61.13
2019-01-14T10:39:31.008Z,60.24
2019-01-14T10:42:05.061Z,56.61
2019-01-14T10:44:33.723Z,59.77
2019-01-14T10:47:04.425Z,63.19
2019-01-14T10:49:34.882Z,63.55
2019-01-14T10:52:05.853Z,65.12
2019-01-14T10:54:36.298Z,64.59
2019-01-14T10:57:06.813Z,64.16
2019-01-14T10:59:37.204Z,65.22
2019-01-14T11:02:07.987Z,67.24
2019-01-14T11:04:38.474Z,66.14
2019-01-14T11:07:08.955Z,68.05
2019-01-14T11:09:39.618Z,65.75
2019-01-14T11:12:10.240Z,63.90
2019-01-14T11:14:40.775Z,61.70
2019-01-14T11:17:11.159Z,59.48
2019-01-14T11:19:41.741Z,60.46
2019-01-14T11:22:12.696Z,61.05
2019-01-14T11:24:52.647Z,59.36
2019-01-14T11:27:23.385Z,57.64
2019-01-14T11:29:54.700Z,58.72
2019-01-14T11:32:25.735Z,60.87
2019-01-14T11:34:56.336Z,60.84
2019-01-14T11:37:26.873Z,61.85
2019-01-14T11:39:57.507Z,58.56
2019-01-14T11:42:28.193Z,55.54
2019-01-14T11:44:58.847Z,53.74
2019-01-14T11:47:29.485Z,56.49
2019-01-14T11:49:59.996Z,57.89
2019-01-14T11:52:30.433Z,60.18
2019-01-14T11:55:00.819Z,56.87
2019-01-14T11:57:31.356Z,55.26
2019-01-14T12:00:05.155Z,54.91
2019-01-14T12:02:40.131Z,54.32
2019-01-14T12:05:11.494Z,52.14
2019-01-14T12:07:47.475Z,50.47
2019-01-14T12:10:22.615Z,52.01
2019-01-14T12:12:53.033Z,50.63
2019-01-14T12:15:27.048Z,49.92
2019-01-14T12:17:57.854Z,50.38
2019-01-14T12:20:28.351Z,50.83
2019-01-14T12:22:58.916Z,48.23
2019-01-14T12:25:29.383Z,50.00
2019-01-14T12:27:59.687Z,49.77
2019-01-14T12:30:38.108Z,49.70
2019-01-14T12:33:09.021Z,48.85
2019-01-14T12:35:39.378Z,49.46
2019-01-14T12:38:09.885Z,48.25
2019-01-14T12:40:40.315Z,51.30
2019-01-14T12:43:10.701Z,51.41
2019-01-14T12:45:41.458Z,52.66
2019-01-14T12:48:11.966Z,52.08
2019-01-14T12:50:42.549Z,52.06
2019-01-14T12:53:13.298Z,48.45
2019-01-14T12:55:43.761Z,48.90
2019-01-14T12:58:14.825Z,47.57
2019-01-14T13:00:45.572Z,45.39
2019-01-14T13:03:15.938Z,46.35
2019-01-14T13:05:46.412Z,46.54
2019-01-14T13:08:16.967Z,47.68
2019-01-14T13:10:47.417Z,48.86
2019-01-14T13:13:17.974Z,50.57
2019-01-14T13:15:50.363Z,49.91
2019-01-14T13:18:20.776Z,50.45
2019-01-14T13:20:51.193Z,51.67
2019-01-14T13:23:21.600Z,50.59
2019-01-14T13:25:52.097Z,52.99
2019-01-14T13:28:22.967Z,51.06
2019-01-14T13:30:53.429Z,52.26
2019-01-14T13:33:24.036Z,54.12
2019-01-14T13:35:54.631Z,53.87
2019-01-14T13:38:25.145Z,53.77
2019-01-14T13:40:55.683Z,54.54
2019-01-14T13:43:26.541Z,54.06
2019-01-14T13:45:57.013Z,54.63
2019-01-14T13:48:27.466Z,54.57
2019-01-14T13:50:58.048Z,54.67
2019-01-14T13:53:28.628Z,53.36
2019-01-14T13:55:59.656Z,53.82
2019-01-14T13:58:30.264Z,55.48
2019-01-14T14:01:00.774Z,56.41
2019-01-14T14:03:31.355Z,58.84
2019-01-14T14:06:01.844Z,58.32
2019-01-14T14:08:32.302Z,55.03
2019-01-14T14:11:02.911Z,53.86
2019-01-14T14:13:34.647Z,53.16
2019-01-14T14:16:05.225Z,56.75
2019-01-14T14:18:35.708Z,57.98
2019-01-14T14:21:06.111Z,57.39
2019-01-14T14:23:36.597Z,58.04
2019-01-14T14:26:07.174Z,68.28
2019-01-14T14:28:37.582Z,76.04
2019-01-14T14:31:08.142Z,79.64
2019-01-14T14:33:38.582Z,83.57
2019-01-14T14:36:09.113Z,86.10
2019-01-14T14:38:39.542Z,87.60
2019-01-14T14:41:09.944Z,88.24
2019-01-14T14:43:40.543Z,88.23
2019-01-14T14:46:11.014Z,88.15
2019-01-14T14:48:41.507Z,88.23
2019-01-14T15:08:31.120Z,91.42
2019-01-14T15:11:01.996Z,91.35
2019-01-14T15:13:32.439Z,91.03
2019-01-14T15:16:03.419Z,90.40
2019-01-14T15:18:34.473Z,89.55
2019-01-14T15:21:05.072Z,88.35
2019-01-14T15:23:35.567Z,85.55
2019-01-14T15:26:06.120Z,82.71
2019-01-14T15:28:36.922Z,80.40
2019-01-14T15:31:08.002Z,80.40
2019-01-14T15:33:38.555Z,78.90
2019-01-14T15:36:09.016Z,77.04
2019-01-14T15:38:39.726Z,76.97
2019-01-14T15:41:10.248Z,73.99
2019-01-14T15:43:40.843Z,73.54
2019-01-14T15:46:11.378Z,73.89
2019-01-14T15:48:42.017Z,74.49
2019-01-14T15:51:12.562Z,74.53
2019-01-14T15:53:43.063Z,74.55
2019-01-14T15:56:13.572Z,74.31
2019-01-14T15:58:44.072Z,74.97
2019-01-14T16:01:14.708Z,75.29
2019-01-14T16:03:45.282Z,74.97
2019-01-14T16:06:15.832Z,75.30
2019-01-14T16:08:46.302Z,75.75
2019-01-14T16:11:16.813Z,75.61
2019-01-14T16:13:47.553Z,75.69
2019-01-14T16:16:18.484Z,76.12
2019-01-14T16:18:51.522Z,76.68
2019-01-14T16:21:23.702Z,76.60
2019-01-14T16:23:55.142Z,76.85
2019-01-14T16:26:25.536Z,77.02
2019-01-14T16:29:01.300Z,77.24
2019-01-14T16:31:31.985Z,76.68
2019-01-14T16:34:02.507Z,76.76
2019-01-14T16:36:38.077Z,76.63
2019-01-14T16:39:09.919Z,77.32
2019-01-14T16:41:45.066Z,76.96
2019-01-14T16:44:15.720Z,76.88
2019-01-14T16:46:52.728Z,76.92
2019-01-14T16:49:26.907Z,76.97
2019-01-14T16:51:58.658Z,76.89
2019-01-14T16:54:31.143Z,76.71
2019-01-14T16:57:01.772Z,76.26
2019-01-14T16:59:44.278Z,76.70
2019-01-14T17:02:19.736Z,76.79
2019-01-14T17:04:52.458Z,76.79
2019-01-14T17:07:23.092Z,76.53
2019-01-14T17:09:53.744Z,76.73
2019-01-14T17:12:27.452Z,76.64
2019-01-14T17:15:01.669Z,76.62
2019-01-14T17:17:33.272Z,76.63
2019-01-14T17:20:09.592Z,76.38
2019-01-14T17:22:42.730Z,75.67
2019-01-14T17:25:14.351Z,75.30
2019-01-14T17:27:45.647Z,75.07
2019-01-14T17:30:18.613Z,74.74
2019-01-14T17:32:50.249Z,74.96
2019-01-14T17:35:24.243Z,75.02
2019-01-14T17:37:54.781Z,75.01
2019-01-14T17:40:32.503Z,75.58
2019-01-14T17:43:08.985Z,75.72
2019-01-14T17:45:40.450Z,76.00
2019-01-14T17:48:15.160Z,76.15
2019-01-14T17:50:45.638Z,76.52
2019-01-14T17:53:16.147Z,75.80
2019-01-14T17:55:47.171Z,76.25
2019-01-14T17:58:20.300Z,76.45
2019-01-14T18:00:51.482Z,76.52
2019-01-14T18:03:27.237Z,76.96
2019-01-14T18:05:57.936Z,76.97
2019-01-14T18:08:29.664Z,76.97
2019-01-14T18:11:07.238Z,76.79
2019-01-14T18:13:37.976Z,77.05
2019-01-14T18:16:09.838Z,76.64
2019-01-14T18:19:07.745Z,76.68
2019-01-14T18:21:39.174Z,76.92
2019-01-14T18:24:10.048Z,76.75
2019-01-14T18:26:43.273Z,76.96
2019-01-14T18:29:14.525Z,76.75
2019-01-14T18:31:49.015Z,76.64
2019-01-14T18:34:24.087Z,77.27
2019-01-14T18:36:55.919Z,77.59
2019-01-14T18:39:35.856Z,77.17
2019-01-14T18:42:08.133Z,77.64
2019-01-14T18:44:40.044Z,78.09
2019-01-14T18:47:11.087Z,78.13
2019-01-14T18:49:47.857Z,78.27
2019-01-14T18:52:20.068Z,78.62
2019-01-14T18:54:53.517Z,78.77
2019-01-14T18:57:25.167Z,79.17
2019-01-14T19:00:02.002Z,79.37
2019-01-14T19:02:36.675Z,79.41
2019-01-14T19:05:07.869Z,79.53
2019-01-14T19:07:42.210Z,79.76
2019-01-14T19:10:17.727Z,79.58
2019-01-14T19:12:55.139Z,79.66
2019-01-14T19:15:29.918Z,79.81
2019-01-14T19:18:03.402Z,79.90
2019-01-14T19:20:44.725Z,79.99
2019-01-14T19:23:20.572Z,80.05
2019-01-14T19:25:57.966Z,80.25
2019-01-14T19:28:28.597Z,80.00
2019-01-14T19:30:59.208Z,79.76
2019-01-14T19:33:34.422Z,79.48
2019-01-14T19:36:05.201Z,79.22
2019-01-14T19:38:40.418Z,79.41
2019-01-14T19:41:12.091Z,79.24
2019-01-14T19:43:52.725Z,79.05
2019-01-14T19:46:30.552Z,78.86
2019-01-14T19:49:08.353Z,78.67
2019-01-14T19:51:42.592Z,78.38
2019-01-14T19:54:17.953Z,78.29
2019-01-14T19:56:52.866Z,77.75
2019-01-14T19:59:23.550Z,77.89
2019-01-14T20:02:05.371Z,77.70
2019-01-14T20:04:38.162Z,77.88
2019-01-14T20:07:12.473Z,77.71
2019-01-14T20:09:46.309Z,77.78
2019-01-14T20:12:19.984Z,77.75
2019-01-14T20:14:55.208Z,77.79
2019-01-14T20:17:32.308Z,77.84
2019-01-14T20:20:12.927Z,77.99
2019-01-14T20:22:48.386Z,78.09
2019-01-14T20:25:25.020Z,78.01
2019-01-14T20:28:02.189Z,78.16
2019-01-14T20:30:36.061Z,78.22
2019-01-14T20:33:10.846Z,77.96
2019-01-14T20:35:43.534Z,77.91
2019-01-14T20:38:17.712Z,77.98
2019-01-14T20:40:53.168Z,77.96
2019-01-14T20:43:27.946Z,77.94
2019-01-14T20:46:01.583Z,77.70
2019-01-14T20:48:38.118Z,77.63
2019-01-14T20:51:13.114Z,77.71
2019-01-14T20:53:44.817Z,77.53
2019-01-14T20:56:18.197Z,77.35
2019-01-14T20:58:52.083Z,77.36
2019-01-14T21:01:34.496Z,77.42
2019-01-14T21:04:11.644Z,77.28
2019-01-14T21:06:42.240Z,77.31
2019-01-14T21:09:14.024Z,77.21
2019-01-14T21:11:44.772Z,77.37
2019-01-14T21:14:17.855Z,77.19
2019-01-14T21:16:49.662Z,77.17
2019-01-14T21:19:26.607Z,77.09
2019-01-14T21:21:58.262Z,76.83
2019-01-14T21:24:39.403Z,76.97
2019-01-14T21:27:13.910Z,76.86
2019-01-14T21:29:45.119Z,76.86
2019-01-14T21:32:15.815Z,76.82
2019-01-14T21:34:50.340Z,76.71
2019-01-14T21:37:21.329Z,76.66
2019-01-14T21:39:58.875Z,76.68
2019-01-14T21:42:32.752Z,76.98
2019-01-14T21:45:03.320Z,76.86
2019-01-14T21:47:35.087Z,76.62
2019-01-14T21:50:08.448Z,76.59
2019-01-14T21:52:39.090Z,76.47
2019-01-14T21:55:12.674Z,76.50
2019-01-14T21:57:43.080Z,76.72
2019-01-14T22:00:20.329Z,76.59
2019-01-14T22:02:50.917Z,76.51
2019-01-14T22:05:21.598Z,76.36
2019-01-14T22:07:52.239Z,76.63
2019-01-14T22:10:26.314Z,76.64
2019-01-14T22:12:57.144Z,76.65
2019-01-14T22:15:28.139Z,75.72
2019-01-14T22:17:58.808Z,75.52
2019-01-14T22:20:30.761Z,75.28
2019-01-14T22:23:01.333Z,75.58
2019-01-14T22:25:32.239Z,75.20
2019-01-14T22:28:02.794Z,74.91
2019-01-14T22:30:36.123Z,75.13
2019-01-14T22:33:06.687Z,74.96
2019-01-14T22:35:37.207Z,74.78
2019-01-14T22:38:08.048Z,74.71
2019-01-14T22:40:38.482Z,74.36
2019-01-14T22:43:08.897Z,74.32
2019-01-14T22:45:39.503Z,74.37
2019-01-14T22:48:09.967Z,74.34
2019-01-14T22:50:40.458Z,74.40
2019-01-14T22:53:11.185Z,74.34
2019-01-14T22:55:41.453Z,73.97
2019-01-14T22:58:11.873Z,74.12
2019-01-14T23:01:08.110Z,74.32
2019-01-14T23:03:39.482Z,74.64
2019-01-14T23:06:10.161Z,74.22
2019-01-14T23:08:40.810Z,74.05
2019-01-14T23:11:11.183Z,73.63
2019-01-14T23:13:41.627Z,74.25
2019-01-14T23:16:12.547Z,74.43
2019-01-14T23:18:43.128Z,74.32
2019-01-14T23:21:13.707Z,74.11
2019-01-14T23:23:44.364Z,74.70
2019-01-14T23:26:14.852Z,73.86
2019-01-14T23:28:45.304Z,74.32
2019-01-14T23:31:15.952Z,74.00
2019-01-14T23:33:46.536Z,74.51
2019-01-14T23:36:17.028Z,73.98
2019-01-14T23:38:47.588Z,74.55
2019-01-14T23:41:18.228Z,74.27
2019-01-14T23:43:48.897Z,73.81
2019-01-14T23:46:19.447Z,74.57
2019-01-14T23:48:50.067Z,74.04
2019-01-14T23:51:20.649Z,74.12
2019-01-14T23:53:51.482Z,74.49
2019-01-14T23:56:22.040Z,74.64
2019-01-14T23:58:52.638Z,74.60
